createdAt,value
2022-07-30T00:01:57.959Z,101279.63
2022-07-30T00:04:25.266Z,101280.06
2022-07-30T00:06:52.682Z,101281.38
2022-07-30T00:09:19.975Z,101280.81
2022-07-30T00:11:47.517Z,101283.47
2022-07-30T00:14:14.735Z,101283.78
2022-07-30T00:16:42.180Z,101282.28
2022-07-30T00:19:09.999Z,101281.06
2022-07-30T00:21:39.010Z,101281.41
2022-07-30T00:24:08.667Z,101278.69
2022-07-30T00:26:36.137Z,101277.53
2022-07-30T00:29:04.091Z,101277.50
2022-07-30T00:31:31.805Z,101273.88
2022-07-30T00:33:59.117Z,101275.38
2022-07-30T00:36:26.593Z,101275.56
2022-07-30T00:38:53.958Z,101277.97
2022-07-30T00:41:22.131Z,101268.75
2022-07-30T00:43:49.428Z,101274.38
2022-07-30T00:46:16.806Z,101278.22
2022-07-30T00:48:44.227Z,101270.03
2022-07-30T00:51:11.848Z,101266.88
2022-07-30T00:53:39.295Z,101262.09
2022-07-30T00:56:06.974Z,101260.56
2022-07-30T00:58:35.331Z,101266.19
2022-07-30T01:01:02.999Z,101264.59
2022-07-30T01:03:30.283Z,101262.97
2022-07-30T01:05:57.749Z,101264.53
2022-07-30T01:08:25.149Z,101264.88
2022-07-30T01:10:52.635Z,101263.53
2022-07-30T01:13:19.954Z,101267.34
2022-07-30T01:15:47.968Z,101268.00
2022-07-30T01:18:16.339Z,101266.38
2022-07-30T01:20:50.436Z,101275.84
2022-07-30T01:23:28.111Z,101267.09
2022-07-30T01:26:08.078Z,101271.81
2022-07-30T01:29:01.724Z,101270.72
2022-07-30T01:31:30.688Z,101269.19
2022-07-30T01:33:59.192Z,101269.75
2022-07-30T01:36:27.897Z,101264.13
2022-07-30T01:38:55.690Z,101275.69
2022-07-30T01:41:24.117Z,101268.22
2022-07-30T01:43:52.655Z,101267.53
2022-07-30T01:46:20.134Z,101263.03
2022-07-30T01:48:49.668Z,101269.59
2022-07-30T01:51:17.733Z,101273.13
2022-07-30T01:53:50.080Z,101276.13
2022-07-30T01:56:20.165Z,101274.31
2022-07-30T01:58:53.983Z,101274.06
2022-07-30T02:01:24.774Z,101277.75
2022-07-30T02:03:59.476Z,101271.59
2022-07-30T02:06:40.890Z,101275.78
2022-07-30T02:09:11.625Z,101270.78
2022-07-30T02:12:01.919Z,101275.09
2022-07-30T02:14:47.278Z,101268.88
2022-07-30T02:17:19.384Z,101270.72
2022-07-30T02:19:50.076Z,101277.78
2022-07-30T02:22:18.941Z,101268.44
2022-07-30T02:24:48.345Z,101265.44
2022-07-30T02:27:23.169Z,101269.72
2022-07-30T02:29:52.561Z,101265.88
2022-07-30T02:32:22.384Z,101272.44
2022-07-30T02:34:52.274Z,101269.09
2022-07-30T02:37:43.014Z,101262.94
2022-07-30T02:40:12.811Z,101267.16
2022-07-30T02:42:41.437Z,101263.09
2022-07-30T02:45:09.410Z,101256.16
2022-07-30T02:47:37.245Z,101253.34
2022-07-30T02:50:06.616Z,101255.59
2022-07-30T02:52:35.212Z,101251.38
2022-07-30T02:55:03.132Z,101258.97
2022-07-30T02:57:31.813Z,101253.91
2022-07-30T03:00:00.193Z,101259.06
2022-07-30T03:02:29.383Z,101259.13
2022-07-30T03:04:58.042Z,101262.19
2022-07-30T03:07:25.635Z,101260.66
2022-07-30T03:09:53.676Z,101264.59
2022-07-30T03:12:21.941Z,101266.91
2022-07-30T03:14:49.322Z,101264.38
2022-07-30T03:17:18.509Z,101267.50
2022-07-30T03:19:47.000Z,101264.88
2022-07-30T03:22:15.201Z,101264.78
2022-07-30T03:24:43.888Z,101262.16
2022-07-30T03:27:11.361Z,101267.22
2022-07-30T03:29:39.661Z,101265.66
2022-07-30T03:32:07.315Z,101261.16
2022-07-30T03:34:35.575Z,101254.09
2022-07-30T03:37:06.535Z,101260.72
2022-07-30T03:39:36.012Z,101255.22
2022-07-30T03:42:04.697Z,101253.66
2022-07-30T03:44:33.532Z,101254.94
2022-07-30T03:47:03.631Z,101249.75
2022-07-30T03:49:34.520Z,101262.13
2022-07-30T03:52:03.001Z,101257.38
2022-07-30T03:54:34.472Z,101265.53
2022-07-30T03:57:25.862Z,101269.84
2022-07-30T03:59:53.843Z,101272.94
2022-07-30T04:02:22.524Z,101267.78
2022-07-30T04:05:13.916Z,101270.84
2022-07-30T04:07:45.293Z,101277.72
2022-07-30T04:10:15.719Z,101266.44
2022-07-30T04:13:12.291Z,101271.16
2022-07-30T04:16:38.795Z,101269.91
2022-07-30T04:18:44.325Z,101268.69
2022-07-30T04:21:17.251Z,101267.69
2022-07-30T04:24:03.040Z,101273.75
2022-07-30T04:26:37.886Z,101276.06
2022-07-30T04:29:08.698Z,101272.72
2022-07-30T04:31:40.032Z,101276.22
2022-07-30T04:34:51.785Z,101276.38
2022-07-30T04:37:32.982Z,101282.72
2022-07-30T04:40:00.320Z,101284.41
2022-07-30T04:42:28.480Z,101282.38
2022-07-30T04:45:06.249Z,101284.19
2022-07-30T04:47:45.320Z,101280.25
2022-07-30T04:50:34.090Z,101285.56
2022-07-30T04:53:02.003Z,101293.94
2022-07-30T04:55:34.118Z,101284.66
2022-07-30T04:58:02.194Z,101285.28
2022-07-30T05:00:37.724Z,101285.09
2022-07-30T05:03:12.584Z,101287.94
2022-07-30T05:05:42.538Z,101288.66
2022-07-30T05:08:12.811Z,101285.97
2022-07-30T05:10:40.673Z,101286.88
2022-07-30T05:13:14.315Z,101282.66
2022-07-30T05:15:44.703Z,101287.78
2022-07-30T05:18:13.299Z,101295.91
2022-07-30T05:20:43.520Z,101295.75
2022-07-30T05:23:16.333Z,101303.13
2022-07-30T05:25:50.450Z,101307.25
2022-07-30T05:28:28.598Z,101312.09
2022-07-30T05:30:59.186Z,101298.56
2022-07-30T05:33:41.221Z,101306.09
2022-07-30T05:36:12.985Z,101308.66
2022-07-30T05:38:40.979Z,101304.44
2022-07-30T05:41:43.483Z,101314.31
2022-07-30T05:44:24.016Z,101315.50
2022-07-30T05:46:52.311Z,101307.34
2022-07-30T05:49:19.775Z,101312.59
2022-07-30T05:51:47.336Z,101314.28
2022-07-30T05:57:02.897Z,101315.41
2022-07-30T05:59:36.114Z,101318.19
2022-07-30T06:02:07.151Z,101310.69
2022-07-30T06:04:56.338Z,101312.16
2022-07-30T06:07:24.453Z,101318.19
2022-07-30T06:09:54.248Z,101312.84
2022-07-30T06:12:21.671Z,101311.00
2022-07-30T06:14:49.422Z,101313.47
2022-07-30T06:17:23.839Z,101313.88
2022-07-30T06:20:07.525Z,101310.53
2022-07-30T06:22:47.559Z,101315.69
2022-07-30T06:25:22.859Z,101318.66
2022-07-30T06:27:50.939Z,101321.81
2022-07-30T06:30:18.329Z,101329.88
2022-07-30T06:32:48.801Z,101330.44
2022-07-30T06:38:05.711Z,101336.22
2022-07-30T06:40:33.670Z,101344.63
2022-07-30T06:43:05.983Z,101347.94
2022-07-30T06:45:47.751Z,101347.50
2022-07-30T06:48:22.624Z,101349.59
2022-07-30T06:50:50.245Z,101349.59
2022-07-30T06:53:17.962Z,101352.66
2022-07-30T06:56:08.240Z,101353.06
2022-07-30T06:58:44.513Z,101358.59
2022-07-30T07:01:50.632Z,101362.09
2022-07-30T07:04:18.417Z,101371.00
2022-07-30T07:06:45.711Z,101369.03
2022-07-30T07:09:17.393Z,101366.06
2022-07-30T07:12:00.533Z,101370.81
2022-07-30T07:14:28.025Z,101369.75
2022-07-30T07:16:55.404Z,101377.97
2022-07-30T07:20:01.704Z,101371.50
2022-07-30T07:22:33.776Z,101374.06
2022-07-30T07:25:01.032Z,101373.03
2022-07-30T07:27:31.559Z,101371.91
2022-07-30T07:30:05.326Z,101375.41
2022-07-30T07:32:36.565Z,101377.25
2022-07-30T07:35:05.717Z,101375.78
2022-07-30T07:37:35.276Z,101372.88
2022-07-30T07:40:04.373Z,101368.41
2022-07-30T07:42:36.167Z,101370.66
2022-07-30T07:45:03.727Z,101368.53
2022-07-30T07:47:56.063Z,101364.88
2022-07-30T07:50:43.609Z,101370.84
2022-07-30T07:53:18.371Z,101368.63
2022-07-30T07:55:45.860Z,101367.63
2022-07-30T07:58:18.160Z,101358.94
2022-07-30T08:00:54.187Z,101360.34
2022-07-30T08:03:24.872Z,101361.94
2022-07-30T08:06:00.991Z,101356.34
2022-07-30T08:08:50.801Z,101357.66
2022-07-30T08:11:40.930Z,101352.38
2022-07-30T08:14:26.576Z,101344.88
2022-07-30T08:17:16.671Z,101354.28
2022-07-30T08:20:08.361Z,101345.75
2022-07-30T08:22:36.031Z,101349.78
2022-07-30T08:25:04.699Z,101353.28
2022-07-30T08:27:32.206Z,101355.72
2022-07-30T08:30:05.575Z,101357.56
2022-07-30T08:32:33.020Z,101365.78
2022-07-30T08:35:01.010Z,101372.66
2022-07-30T08:37:28.969Z,101383.66
2022-07-30T08:39:56.264Z,101371.50
2022-07-30T08:42:24.162Z,101373.63
2022-07-30T08:44:53.416Z,101369.72
2022-07-30T08:47:25.441Z,101367.59
2022-07-30T08:50:11.733Z,101365.06
2022-07-30T08:53:11.129Z,101374.81
2022-07-30T08:55:38.578Z,101366.75
2022-07-30T08:58:29.957Z,101372.66
2022-07-30T09:00:58.020Z,101371.91
2022-07-30T09:03:26.047Z,101372.19
2022-07-30T09:05:53.363Z,101366.19
2022-07-30T09:08:20.668Z,101375.19
2022-07-30T09:10:50.646Z,101368.97
2022-07-30T09:13:32.441Z,101371.03
2022-07-30T09:16:01.712Z,101371.56
2022-07-30T09:18:30.555Z,101372.44
2022-07-30T09:21:02.828Z,101370.75
2022-07-30T09:23:30.258Z,101363.16
2022-07-30T09:26:17.563Z,101369.19
2022-07-30T09:29:19.475Z,101366.84
2022-07-30T09:32:07.421Z,101372.47
2022-07-30T09:34:53.539Z,101374.84
2022-07-30T09:37:47.803Z,101381.38
2022-07-30T09:40:50.595Z,101373.25
2022-07-30T09:43:57.169Z,101376.47
2022-07-30T09:46:51.560Z,101381.38
2022-07-30T09:49:28.798Z,101381.31
2022-07-30T09:51:57.680Z,101380.50
2022-07-30T09:54:51.432Z,101375.69
2022-07-30T10:00:23.988Z,101374.50
2022-07-30T10:03:34.111Z,101379.72
2022-07-30T10:06:38.261Z,101373.66
2022-07-30T10:09:27.193Z,101373.69
2022-07-30T10:11:56.691Z,101368.00
2022-07-30T10:14:30.774Z,101376.09
2022-07-30T10:17:00.901Z,101376.47
2022-07-30T10:19:39.570Z,101381.69
2022-07-30T10:22:28.013Z,101377.69
2022-07-30T10:25:16.052Z,101370.22
2022-07-30T10:28:03.279Z,101376.41
2022-07-30T10:30:33.534Z,101365.69
2022-07-30T10:33:01.509Z,101364.47
2022-07-30T10:35:31.233Z,101356.28
2022-07-30T10:38:08.350Z,101355.41
2022-07-30T10:40:46.377Z,101350.59
2022-07-30T10:43:20.682Z,101347.94
2022-07-30T10:46:00.473Z,101343.41
2022-07-30T10:48:35.563Z,101343.31
2022-07-30T10:51:11.157Z,101345.72
2022-07-30T10:53:52.618Z,101347.56
2022-07-30T10:56:22.377Z,101348.28
2022-07-30T10:58:59.704Z,101346.81
2022-07-30T11:01:53.199Z,101343.22
2022-07-30T11:04:26.940Z,101340.66
2022-07-30T11:07:22.260Z,101340.06
2022-07-30T11:10:05.575Z,101343.69
2022-07-30T11:12:44.143Z,101337.09
2022-07-30T11:15:18.594Z,101332.25
2022-07-30T11:18:02.353Z,101330.66
2022-07-30T11:20:31.086Z,101324.22
2022-07-30T11:23:37.693Z,101324.38
2022-07-30T11:26:07.445Z,101326.03
2022-07-30T11:28:36.755Z,101328.50
2022-07-30T11:31:37.090Z,101315.84
2022-07-30T11:34:32.770Z,101328.78
2022-07-30T11:37:22.468Z,101320.38
2022-07-30T11:39:59.818Z,101326.03
2022-07-30T11:42:30.923Z,101316.25
2022-07-30T11:45:16.592Z,101312.34
2022-07-30T11:47:48.568Z,101313.47
2022-07-30T11:50:19.616Z,101306.13
2022-07-30T11:52:54.610Z,101300.44
2022-07-30T11:55:25.733Z,101303.91
2022-07-30T11:57:54.416Z,101298.53
2022-07-30T12:00:22.346Z,101297.34
2022-07-30T12:05:27.185Z,101294.84
2022-07-30T12:07:58.547Z,101295.91
2022-07-30T12:10:26.973Z,101295.63
2022-07-30T12:13:16.376Z,101296.97
2022-07-30T12:15:46.928Z,101300.66
2022-07-30T12:18:26.444Z,101285.94
2022-07-30T12:21:00.217Z,101292.47
2022-07-30T12:23:28.981Z,101292.38
2022-07-30T12:25:56.896Z,101295.84
2022-07-30T12:28:30.896Z,101294.03
2022-07-30T12:30:59.293Z,101292.78
2022-07-30T12:33:26.902Z,101285.19
2022-07-30T12:36:00.952Z,101288.09
2022-07-30T12:38:29.005Z,101276.22
2022-07-30T12:41:03.405Z,101282.00
2022-07-30T12:43:52.973Z,101289.34
2022-07-30T12:46:23.951Z,101286.22
2022-07-30T12:49:21.411Z,101278.69
2022-07-30T12:51:52.612Z,101275.44
2022-07-30T12:54:27.490Z,101278.34
2022-07-30T12:57:00.668Z,101275.03
2022-07-30T12:59:28.978Z,101285.13
2022-07-30T13:02:03.491Z,101279.94
2022-07-30T13:04:32.063Z,101276.16
2022-07-30T13:07:18.220Z,101282.09
2022-07-30T13:09:45.564Z,101283.94
2022-07-30T13:12:15.151Z,101259.22
2022-07-30T13:14:42.457Z,101258.19
2022-07-30T13:17:10.745Z,101267.41
2022-07-30T13:19:38.119Z,101254.84
2022-07-30T13:22:05.535Z,101263.94
2022-07-30T13:24:34.117Z,101261.56
2022-07-30T13:27:01.608Z,101264.25
2022-07-30T13:29:29.079Z,101264.66
2022-07-30T13:31:56.483Z,101264.75
2022-07-30T13:34:23.785Z,101270.16
2022-07-30T13:36:52.850Z,101265.78
2022-07-30T13:39:20.325Z,101256.31
2022-07-30T13:41:47.589Z,101251.28
2022-07-30T13:44:14.879Z,101253.88
2022-07-30T13:46:42.144Z,101251.28
2022-07-30T13:49:10.849Z,101240.63
2022-07-30T13:51:38.393Z,101241.50
2022-07-30T13:54:07.376Z,101242.94
2022-07-30T13:56:35.027Z,101237.13
2022-07-30T13:59:08.829Z,101242.66
2022-07-30T14:01:36.159Z,101245.13
2022-07-30T14:04:03.849Z,101240.50
2022-07-30T14:06:31.206Z,101239.78
2022-07-30T14:08:58.594Z,101236.56
2022-07-30T14:11:25.938Z,101231.19
2022-07-30T14:13:53.213Z,101226.66
2022-07-30T14:16:43.525Z,101229.66
2022-07-30T14:19:08.153Z,101232.47
2022-07-30T14:21:50.603Z,101226.94
2022-07-30T14:24:17.905Z,101223.84
2022-07-30T14:26:45.151Z,101221.72
2022-07-30T14:29:12.473Z,101215.03
2022-07-30T14:31:40.685Z,101218.16
2022-07-30T14:34:10.125Z,101214.22
2022-07-30T14:36:37.641Z,101214.19
2022-07-30T14:39:05.084Z,101210.13
2022-07-30T14:41:32.995Z,101207.50
2022-07-30T14:44:00.428Z,101203.78
2022-07-30T14:46:27.804Z,101225.66
2022-07-30T14:48:55.208Z,101213.91
2022-07-30T14:51:26.381Z,101210.78
2022-07-30T14:53:55.557Z,101216.69
2022-07-30T14:56:25.194Z,101215.09
2022-07-30T14:58:54.679Z,101207.31
2022-07-30T15:01:21.977Z,101201.16
2022-07-30T15:03:49.296Z,101196.78
2022-07-30T15:06:17.338Z,101208.78
2022-07-30T15:08:46.141Z,101204.22
2022-07-30T15:11:13.434Z,101201.19
2022-07-30T15:13:49.686Z,101192.50
2022-07-30T15:16:19.022Z,101190.38
2022-07-30T15:18:46.425Z,101187.75
2022-07-30T15:21:14.057Z,101191.28
2022-07-30T15:23:41.454Z,101193.09
2022-07-30T15:26:08.835Z,101185.59
2022-07-30T15:28:36.418Z,101183.91
2022-07-30T15:31:04.403Z,101193.09
2022-07-30T15:33:36.117Z,101190.50
2022-07-30T15:36:04.821Z,101185.50
2022-07-30T15:38:32.435Z,101188.31
2022-07-30T15:40:59.987Z,101178.59
2022-07-30T15:43:27.548Z,101181.84
2022-07-30T15:45:55.897Z,101183.03
2022-07-30T15:48:26.815Z,101178.25
2022-07-30T15:51:04.630Z,101183.66
2022-07-30T15:53:32.754Z,101189.13
2022-07-30T15:56:00.685Z,101185.03
2022-07-30T15:58:28.119Z,101179.91
2022-07-30T16:00:55.500Z,101176.69
2022-07-30T16:03:22.911Z,101184.13
2022-07-30T16:05:52.492Z,101171.06
2022-07-30T16:08:21.405Z,101176.50
2022-07-30T16:10:49.525Z,101177.56
2022-07-30T16:13:16.833Z,101169.00
2022-07-30T16:15:44.697Z,101173.66
2022-07-30T16:18:12.260Z,101174.53
2022-07-30T16:20:39.542Z,101165.88
2022-07-30T16:23:12.159Z,101172.00
2022-07-30T16:25:40.549Z,101180.41
2022-07-30T16:28:07.880Z,101174.72
2022-07-30T16:30:35.363Z,101176.25
2022-07-30T16:33:16.592Z,101171.91
2022-07-30T16:35:49.417Z,101170.59
2022-07-30T16:38:19.826Z,101171.84
2022-07-30T16:40:47.600Z,101164.19
2022-07-30T16:43:16.257Z,101160.25
2022-07-30T16:45:43.829Z,101160.91
2022-07-30T16:48:11.941Z,101168.41
2022-07-30T16:50:40.763Z,101163.03
2022-07-30T16:53:13.341Z,101156.16
2022-07-30T16:55:42.961Z,101150.69
2022-07-30T16:58:10.834Z,101157.19
2022-07-30T17:00:38.536Z,101152.31
2022-07-30T17:03:05.944Z,101147.94
2022-07-30T17:05:33.243Z,101144.59
2022-07-30T17:08:00.648Z,101144.13
2022-07-30T17:10:28.090Z,101146.75
2022-07-30T17:12:56.866Z,101146.22
2022-07-30T17:15:32.906Z,101150.81
2022-07-30T17:18:03.655Z,101156.97
2022-07-30T17:20:31.746Z,101150.28
2022-07-30T17:22:59.070Z,101137.91
2022-07-30T17:25:29.838Z,101138.38
2022-07-30T17:27:58.689Z,101138.84
2022-07-30T17:30:27.081Z,101136.44
2022-07-30T17:32:54.423Z,101139.88
2022-07-30T17:35:22.028Z,101136.94
2022-07-30T17:37:49.399Z,101138.97
2022-07-30T17:40:28.543Z,101139.84
2022-07-30T17:43:03.522Z,101143.16
2022-07-30T17:45:35.429Z,101138.69
2022-07-30T17:48:06.321Z,101139.56
2022-07-30T17:50:34.596Z,101141.53
2022-07-30T17:53:03.513Z,101152.50
2022-07-30T17:55:34.801Z,101148.34
2022-07-30T17:58:05.753Z,101149.81
2022-07-30T18:00:34.872Z,101149.81
2022-07-30T18:03:03.632Z,101145.63
2022-07-30T18:05:31.178Z,101143.03
2022-07-30T18:07:58.637Z,101157.81
2022-07-30T18:10:25.918Z,101163.97
2022-07-30T18:12:53.734Z,101165.41
2022-07-30T18:15:21.008Z,101166.50
2022-07-30T18:17:48.364Z,101168.19
2022-07-30T18:20:16.132Z,101169.50
2022-07-30T18:22:43.671Z,101168.50
2022-07-30T18:25:16.551Z,101165.13
2022-07-30T18:27:47.527Z,101173.66
2022-07-30T18:30:15.484Z,101175.34
2022-07-30T18:32:45.342Z,101173.19
2022-07-30T18:35:14.720Z,101172.28
2022-07-30T18:37:43.782Z,101174.19
2022-07-30T18:40:17.705Z,101176.34
2022-07-30T18:42:48.187Z,101180.41
2022-07-30T18:45:15.566Z,101186.34
2022-07-30T18:47:44.284Z,101184.13
2022-07-30T18:50:13.333Z,101187.59
2022-07-30T18:52:41.064Z,101192.88
2022-07-30T18:55:11.172Z,101190.38
2022-07-30T18:57:39.395Z,101193.47
2022-07-30T19:00:08.801Z,101193.59
2022-07-30T19:02:37.316Z,101201.59
2022-07-30T19:05:05.741Z,101202.31
2022-07-30T19:07:55.409Z,101195.94
2022-07-30T19:10:20.669Z,101209.06
2022-07-30T19:12:54.949Z,101211.47
2022-07-30T19:15:23.799Z,101213.97
2022-07-30T19:17:51.809Z,101220.16
2022-07-30T19:20:20.100Z,101227.22
2022-07-30T19:22:47.890Z,101230.75
2022-07-30T19:25:18.043Z,101232.97
2022-07-30T19:27:45.850Z,101228.03
2022-07-30T19:30:13.575Z,101234.56
2022-07-30T19:32:41.197Z,101247.63
2022-07-30T19:35:13.592Z,101238.25
2022-07-30T19:37:43.385Z,101237.09
2022-07-30T19:40:12.802Z,101230.44
2022-07-30T19:42:41.529Z,101243.63
2022-07-30T19:45:11.473Z,101247.75
2022-07-30T19:47:39.754Z,101248.19
2022-07-30T19:50:10.506Z,101257.63
2022-07-30T19:52:39.889Z,101252.84
2022-07-30T19:55:17.323Z,101264.91
2022-07-30T19:57:55.989Z,101260.94
2022-07-30T20:00:24.912Z,101278.78
2022-07-30T20:02:53.774Z,101275.16
2022-07-30T20:05:21.076Z,101282.44
2022-07-30T20:07:52.716Z,101285.31
2022-07-30T20:10:19.955Z,101296.97
2022-07-30T20:12:50.196Z,101299.81
2022-07-30T20:15:17.803Z,101295.81
2022-07-30T20:17:46.356Z,101290.59
2022-07-30T20:20:14.450Z,101309.50
2022-07-30T20:22:41.710Z,101315.56
2022-07-30T20:25:10.702Z,101308.72
2022-07-30T20:27:40.313Z,101309.88
2022-07-30T20:30:09.455Z,101315.13
2022-07-30T20:32:38.325Z,101317.59
2022-07-30T20:35:07.413Z,101314.38
2022-07-30T20:37:40.326Z,101322.03
2022-07-30T20:40:24.142Z,101323.22
2022-07-30T20:42:54.393Z,101323.63
2022-07-30T20:45:24.718Z,101328.06
2022-07-30T20:47:56.602Z,101328.88
2022-07-30T20:50:30.745Z,101324.03
2022-07-30T20:52:59.553Z,101332.47
2022-07-30T20:55:27.316Z,101332.88
2022-07-30T20:58:01.357Z,101338.50
2022-07-30T21:00:36.698Z,101338.91
2022-07-30T21:03:05.461Z,101340.84
2022-07-30T21:05:35.445Z,101348.88
2022-07-30T21:08:03.096Z,101341.72
2022-07-30T21:10:30.466Z,101356.63
2022-07-30T21:13:02.941Z,101347.38
2022-07-30T21:15:32.923Z,101348.56
2022-07-30T21:18:01.766Z,101349.81
2022-07-30T21:20:30.815Z,101357.72
2022-07-30T21:23:11.354Z,101354.00
2022-07-30T21:26:00.834Z,101359.97
2022-07-30T21:28:29.605Z,101358.31
2022-07-30T21:30:57.098Z,101354.78
2022-07-30T21:33:44.271Z,101361.22
2022-07-30T21:36:13.087Z,101356.34
2022-07-30T21:38:42.649Z,101362.25
2022-07-30T21:41:14.353Z,101368.69
2022-07-30T21:43:46.489Z,101368.97
2022-07-30T21:46:24.800Z,101360.34
2022-07-30T21:48:58.301Z,101366.47
2022-07-30T21:51:26.690Z,101359.28
2022-07-30T21:53:54.017Z,101376.31
2022-07-30T21:56:21.363Z,101381.22
2022-07-30T21:58:49.096Z,101367.56
2022-07-30T22:01:21.734Z,101378.16
2022-07-30T22:04:03.379Z,101374.16
2022-07-30T22:06:41.791Z,101389.19
2022-07-30T22:09:19.401Z,101390.56
2022-07-30T22:12:09.122Z,101387.06
2022-07-30T22:14:39.230Z,101385.41
2022-07-30T22:17:14.891Z,101384.66
2022-07-30T22:19:51.907Z,101395.50
2022-07-30T22:22:26.036Z,101401.41
2022-07-30T22:24:58.129Z,101402.63
2022-07-30T22:27:25.707Z,101413.50
2022-07-30T22:29:55.759Z,101414.50
2022-07-30T22:32:24.210Z,101414.22
2022-07-30T22:34:52.933Z,101416.78
2022-07-30T22:37:21.717Z,101424.97
2022-07-30T22:39:50.637Z,101418.00
2022-07-30T22:42:24.510Z,101421.47
2022-07-30T22:44:52.915Z,101428.34
2022-07-30T22:47:50.294Z,101429.34
2022-07-30T22:50:08.104Z,101429.50
2022-07-30T22:52:44.182Z,101426.22
2022-07-30T22:55:24.721Z,101431.78
2022-07-30T22:57:52.320Z,101425.47
2022-07-30T23:00:27.447Z,101428.91
2022-07-30T23:02:57.241Z,101425.03
2022-07-30T23:05:25.135Z,101430.94
2022-07-30T23:07:52.486Z,101432.09
2022-07-30T23:10:20.457Z,101431.16
2022-07-30T23:12:53.036Z,101440.31
2022-07-30T23:15:21.059Z,101438.50
2022-07-30T23:17:48.683Z,101440.97
2022-07-30T23:20:17.940Z,101446.88
2022-07-30T23:22:45.211Z,101435.78
2022-07-30T23:25:12.955Z,101424.72
2022-07-30T23:27:41.213Z,101436.44
2022-07-30T23:30:10.227Z,101425.25
2022-07-30T23:32:38.154Z,101428.09
2022-07-30T23:35:07.272Z,101421.22
2022-07-30T23:37:37.965Z,101424.66
2022-07-30T23:40:17.787Z,101421.13
2022-07-30T23:42:45.135Z,101423.84
2022-07-30T23:45:12.413Z,101418.94
2022-07-30T23:48:00.617Z,101425.25
2022-07-30T23:50:27.228Z,101420.44
2022-07-30T23:52:54.622Z,101424.56
2022-07-30T23:55:21.978Z,101428.25
2022-07-30T23:57:49.259Z,101421.13
